PWSweather.com
Personal Weather Stations
Station Observations
KNYSYRAC2
Fairmount Hills, Fairmount, NY 13219

Fairmount HillsFairmount, NY 13219

Lat: 43.03602, Lon: -76.247151

Elevation: 663

Station Type: Ambient Weather WS-2080

http://weather.cerchia.com

High Low Average
Temperature 82.7°F28.2°F 55.3°F12.9°F 68.3°F20.2°F
Dew Point 44.4°F6.9°F 25.6°F-3.6°F 35.9°F2.2°F
Winds 6.3 mph SSW10.1 mph SSW 0.3 mph 0.5 mph 3.2 mph 5.1 mph
Wind Gusts 21.0 mph33.8 mph 2.0 mph3.2 mph 9.6 mph15.4 mph
Humidity 43% 18% 31%
Pressure 30.32 in1026.80 in 30.19 in1022.40 in -
Precipitation 0.00 in0.00 in - -
Hour Temp Dew Point Humidity Winds Wind Gusts Pressure Precip Precip Rate Daily Precip Total
12:00 AM 58.0°F14.4°C 26.8°F-2.9°C 30% 3.1 mph SSE5.0 kmh SSE 10.3 mph16.6 kmh 30.30 in1026.1 mb 0.00 in0.0 mm 0.00 in0.0 mm 0.00 in0.0 mm
12:15 AM 58.4°F14.7°C 26.3°F-3.2°C 29% 3.1 mph SSE5.0 kmh SSE 12.3 mph19.8 kmh 30.30 in1026.1 mb 0.00 in0.0 mm 0.00 in0.0 mm 0.00 in0.0 mm
12:30 AM 58.5°F14.7°C 25.6°F-3.6°C 28% 4.2 mph S6.8 kmh S 12.3 mph19.8 kmh 30.29 in1025.7 mb 0.00 in0.0 mm 0.00 in0.0 mm 0.00 in0.0 mm
12:45 AM 58.5°F14.7°C 25.6°F-3.6°C 28% 3.6 mph S5.8 kmh S 9.5 mph15.3 kmh 30.29 in1025.7 mb 0.00 in0.0 mm 0.00 in0.0 mm 0.00 in0.0 mm
01:00 AM 58.5°F14.7°C 25.6°F-3.6°C 28% 3.2 mph S5.1 kmh S 11.5 mph18.5 kmh 30.29 in1025.7 mb 0.00 in0.0 mm 0.00 in0.0 mm 0.00 in0.0 mm
01:15 AM 58.9°F14.9°C 25.9°F-3.4°C 28% 3.9 mph S6.3 kmh S 10.3 mph16.6 kmh 30.29 in1025.7 mb 0.00 in0.0 mm 0.00 in0.0 mm 0.00 in0.0 mm
01:30 AM 58.9°F14.9°C 25.9°F-3.4°C 28% 4.5 mph S7.2 kmh S 12.3 mph19.8 kmh 30.29 in1025.7 mb 0.00 in0.0 mm 0.00 in0.0 mm 0.00 in0.0 mm
01:45 AM 58.7°F14.8°C 25.7°F-3.5°C 28% 3.9 mph S6.3 kmh S 14.3 mph23.0 kmh 30.30 in1026.1 mb 0.00 in0.0 mm 0.00 in0.0 mm 0.00 in0.0 mm
02:00 AM 58.9°F14.9°C 25.9°F-3.4°C 28% 4.6 mph SSW7.4 kmh SSW 12.3 mph19.8 kmh 30.29 in1025.7 mb 0.00 in0.0 mm 0.00 in0.0 mm 0.00 in0.0 mm
02:15 AM 58.7°F14.8°C 25.7°F-3.5°C 28% 4.5 mph SSW7.2 kmh SSW 19.0 mph30.6 kmh 30.28 in1025.4 mb 0.00 in0.0 mm 0.00 in0.0 mm 0.00 in0.0 mm
02:30 AM 58.4°F14.7°C 26.3°F-3.2°C 29% 4.4 mph S7.1 kmh S 12.3 mph19.8 kmh 30.28 in1025.4 mb 0.00 in0.0 mm 0.00 in0.0 mm 0.00 in0.0 mm
02:45 AM 57.8°F14.3°C 28.9°F-1.7°C 33% 3.2 mph S5.1 kmh S 10.3 mph16.6 kmh 30.28 in1025.4 mb 0.00 in0.0 mm 0.00 in0.0 mm 0.00 in0.0 mm
03:00 AM 56.2°F13.4°C 28.9°F-1.7°C 35% 2.3 mph SSE3.7 kmh SSE 7.5 mph12.1 kmh 30.29 in1025.7 mb 0.00 in0.0 mm 0.00 in0.0 mm 0.00 in0.0 mm
03:15 AM 56.4°F13.6°C 29.1°F-1.6°C 35% 3.1 mph S5.0 kmh S 8.7 mph14.0 kmh 30.28 in1025.4 mb 0.00 in0.0 mm 0.00 in0.0 mm 0.00 in0.0 mm
03:30 AM 56.9°F13.8°C 29.6°F-1.3°C 35% 3.2 mph S5.1 kmh S 8.7 mph14.0 kmh 30.29 in1025.7 mb 0.00 in0.0 mm 0.00 in0.0 mm 0.00 in0.0 mm
03:45 AM 56.7°F13.7°C 29.4°F-1.4°C 35% 2.8 mph S4.5 kmh S 10.3 mph16.6 kmh 30.28 in1025.4 mb 0.00 in0.0 mm 0.00 in0.0 mm 0.00 in0.0 mm
04:00 AM 56.9°F13.8°C 29.6°F-1.3°C 35% 3.1 mph SSE5.0 kmh SSE 7.5 mph12.1 kmh 30.28 in1025.4 mb 0.00 in0.0 mm 0.00 in0.0 mm 0.00 in0.0 mm
04:15 AM 57.1°F13.9°C 29.7°F-1.3°C 35% 2.5 mph SSE4.0 kmh SSE 6.7 mph10.8 kmh 30.28 in1025.4 mb 0.00 in0.0 mm 0.00 in0.0 mm 0.00 in0.0 mm
04:30 AM 57.3°F14.1°C 29.9°F-1.2°C 35% 2.9 mph SE4.7 kmh SE 12.3 mph19.8 kmh 30.28 in1025.4 mb 0.00 in0.0 mm 0.00 in0.0 mm 0.00 in0.0 mm
04:45 AM 57.3°F14.1°C 29.9°F-1.2°C 35% 3.0 mph S4.8 kmh S 9.5 mph15.3 kmh 30.28 in1025.4 mb 0.00 in0.0 mm 0.00 in0.0 mm 0.00 in0.0 mm
05:00 AM 57.1°F13.9°C 30.4°F-0.9°C 36% 2.8 mph SSE4.5 kmh SSE 8.7 mph14.0 kmh 30.28 in1025.4 mb 0.00 in0.0 mm 0.00 in0.0 mm 0.00 in0.0 mm
05:15 AM 56.4°F13.6°C 30.4°F-0.9°C 37% 2.9 mph SE4.7 kmh SE 7.5 mph12.1 kmh 30.28 in1025.4 mb 0.00 in0.0 mm 0.00 in0.0 mm 0.00 in0.0 mm
05:30 AM 55.5°F13.1°C 31.6°F-0.2°C 40% 3.6 mph SE5.8 kmh SE 7.5 mph12.1 kmh 30.30 in1026.1 mb 0.00 in0.0 mm 0.00 in0.0 mm 0.00 in0.0 mm
05:45 AM 55.3°F12.9°C 31.4°F-0.3°C 40% 3.7 mph SE6.0 kmh SE 9.5 mph15.3 kmh 30.30 in1026.1 mb 0.00 in0.0 mm 0.00 in0.0 mm 0.00 in0.0 mm
06:00 AM 55.8°F13.2°C 31.9°F-0.1°C 40% 3.6 mph SSE5.8 kmh SSE 8.7 mph14.0 kmh 30.29 in1025.7 mb 0.00 in0.0 mm 0.00 in0.0 mm 0.00 in0.0 mm
06:15 AM 55.8°F13.2°C 31.9°F-0.1°C 40% 3.6 mph SE5.8 kmh SE 7.5 mph12.1 kmh 30.29 in1025.7 mb 0.00 in0.0 mm 0.00 in0.0 mm 0.00 in0.0 mm
06:30 AM 56.2°F13.4°C 31.6°F-0.2°C 39% 3.8 mph SSE6.1 kmh SSE 10.3 mph16.6 kmh 30.30 in1026.1 mb 0.00 in0.0 mm 0.00 in0.0 mm 0.00 in0.0 mm
06:45 AM 56.7°F13.7°C 32.1°F0.1°C 39% 3.2 mph SE5.1 kmh SE 7.5 mph12.1 kmh 30.30 in1026.1 mb 0.00 in0.0 mm 0.00 in0.0 mm 0.00 in0.0 mm
07:00 AM 58.0°F14.4°C 30.5°F-0.8°C 35% 3.3 mph SE5.3 kmh SE 21.0 mph33.8 kmh 30.30 in1026.1 mb 0.00 in0.0 mm 0.00 in0.0 mm 0.00 in0.0 mm
07:15 AM 59.3°F15.2°C 30.9°F-0.6°C 34% 4.0 mph SE6.4 kmh SE 13.4 mph21.6 kmh 30.30 in1026.1 mb 0.00 in0.0 mm 0.00 in0.0 mm 0.00 in0.0 mm
07:30 AM 60.3°F15.7°C 31.1°F-0.5°C 33% 3.6 mph SW5.8 kmh SW 13.4 mph21.6 kmh 30.30 in1026.1 mb 0.00 in0.0 mm 0.00 in0.0 mm 0.00 in0.0 mm
07:45 AM 61.2°F16.2°C 31.9°F-0.1°C 33% 3.6 mph S5.8 kmh S 13.4 mph21.6 kmh 30.31 in1026.4 mb 0.00 in0.0 mm 0.00 in0.0 mm 0.00 in0.0 mm
08:00 AM 62.3°F16.8°C 32.1°F0.1°C 32% 5.5 mph S8.9 kmh S 13.4 mph21.6 kmh 30.31 in1026.4 mb 0.00 in0.0 mm 0.00 in0.0 mm 0.00 in0.0 mm
08:15 AM 63.0°F17.2°C 32.7°F0.4°C 32% 5.2 mph SW8.4 kmh SW 14.3 mph23.0 kmh 30.31 in1026.4 mb 0.00 in0.0 mm 0.00 in0.0 mm 0.00 in0.0 mm
08:30 AM 63.8°F17.7°C 34.9°F1.6°C 34% 5.1 mph S8.2 kmh S 15.1 mph24.3 kmh 30.32 in1026.8 mb 0.00 in0.0 mm 0.00 in0.0 mm 0.00 in0.0 mm
08:45 AM 64.7°F18.2°C 36.4°F2.4°C 35% 5.6 mph SW9.0 kmh SW 17.1 mph27.5 kmh 30.32 in1026.8 mb 0.00 in0.0 mm 0.00 in0.0 mm 0.00 in0.0 mm
09:00 AM 65.6°F18.7°C 36.5°F2.5°C 34% 4.9 mph SSW7.9 kmh SSW 15.1 mph24.3 kmh 30.31 in1026.4 mb 0.00 in0.0 mm 0.00 in0.0 mm 0.00 in0.0 mm
09:15 AM 66.3°F19.1°C 36.3°F2.4°C 33% 5.6 mph W9.0 kmh W 17.1 mph27.5 kmh 30.31 in1026.4 mb 0.00 in0.0 mm 0.00 in0.0 mm 0.00 in0.0 mm
09:30 AM 66.5°F19.2°C 37.3°F2.9°C 34% 5.8 mph SW9.3 kmh SW 15.1 mph24.3 kmh 30.31 in1026.4 mb 0.00 in0.0 mm 0.00 in0.0 mm 0.00 in0.0 mm
09:45 AM 67.4°F19.7°C 37.3°F2.9°C 33% 5.1 mph SSW8.2 kmh SSW 12.3 mph19.8 kmh 30.31 in1026.4 mb 0.00 in0.0 mm 0.00 in0.0 mm 0.00 in0.0 mm
10:00 AM 67.7°F19.8°C 37.6°F3.1°C 33% 5.0 mph SW8.0 kmh SW 14.3 mph23.0 kmh 30.31 in1026.4 mb 0.00 in0.0 mm 0.00 in0.0 mm 0.00 in0.0 mm
10:15 AM 68.8°F20.4°C 37.0°F2.8°C 31% 4.1 mph WSW6.6 kmh WSW 10.3 mph16.6 kmh 30.31 in1026.4 mb 0.00 in0.0 mm 0.00 in0.0 mm 0.00 in0.0 mm
10:30 AM 69.7°F20.9°C 38.5°F3.6°C 32% 4.1 mph W6.6 kmh W 14.3 mph23.0 kmh 30.30 in1026.1 mb 0.00 in0.0 mm 0.00 in0.0 mm 0.00 in0.0 mm
10:45 AM 70.4°F21.3°C 37.5°F3.1°C 30% 3.5 mph SW5.6 kmh SW 13.4 mph21.6 kmh 30.30 in1026.1 mb 0.00 in0.0 mm 0.00 in0.0 mm 0.00 in0.0 mm
11:00 AM 71.5°F21.9°C 36.7°F2.6°C 28% 3.7 mph NW6.0 kmh NW 11.5 mph18.5 kmh 30.30 in1026.1 mb 0.00 in0.0 mm 0.00 in0.0 mm 0.00 in0.0 mm
11:15 AM 72.0°F22.2°C 38.9°F3.8°C 30% 3.1 mph SW5.0 kmh SW 8.7 mph14.0 kmh 30.30 in1026.1 mb 0.00 in0.0 mm 0.00 in0.0 mm 0.00 in0.0 mm
11:30 AM 72.0°F22.2°C 36.3°F2.4°C 27% 4.5 mph W7.2 kmh W 14.3 mph23.0 kmh 30.29 in1025.7 mb 0.00 in0.0 mm 0.00 in0.0 mm 0.00 in0.0 mm
11:45 AM 72.4°F22.4°C 38.4°F3.6°C 29% 3.7 mph WSW6.0 kmh WSW 8.7 mph14.0 kmh 30.29 in1025.7 mb 0.00 in0.0 mm 0.00 in0.0 mm 0.00 in0.0 mm
12:00 PM 72.4°F22.4°C 38.4°F3.6°C 29% 4.4 mph W7.1 kmh W 12.3 mph19.8 kmh 30.29 in1025.7 mb 0.00 in0.0 mm 0.00 in0.0 mm 0.00 in0.0 mm
12:15 PM 72.9°F22.7°C 38.8°F3.8°C 29% 3.6 mph WSW5.8 kmh WSW 9.5 mph15.3 kmh 30.28 in1025.4 mb 0.00 in0.0 mm 0.00 in0.0 mm 0.00 in0.0 mm
12:30 PM 73.8°F23.2°C 39.6°F4.2°C 29% 3.5 mph W5.6 kmh W 10.3 mph16.6 kmh 30.28 in1025.4 mb 0.00 in0.0 mm 0.00 in0.0 mm 0.00 in0.0 mm
12:45 PM 74.6°F23.7°C 38.4°F3.6°C 27% 3.3 mph WSW5.3 kmh WSW 10.3 mph16.6 kmh 30.28 in1025.4 mb 0.00 in0.0 mm 0.00 in0.0 mm 0.00 in0.0 mm
01:00 PM 75.3°F24.1°C 40.0°F4.4°C 28% 3.0 mph NW4.8 kmh NW 8.7 mph14.0 kmh 30.28 in1025.4 mb 0.00 in0.0 mm 0.00 in0.0 mm 0.00 in0.0 mm
01:15 PM 76.0°F24.4°C 39.6°F4.2°C 27% 2.3 mph WNW3.7 kmh WNW 7.5 mph12.1 kmh 30.28 in1025.4 mb 0.00 in0.0 mm 0.00 in0.0 mm 0.00 in0.0 mm
01:30 PM 77.1°F25.1°C 39.6°F4.2°C 26% 3.1 mph W5.0 kmh W 10.3 mph16.6 kmh 30.28 in1025.4 mb 0.00 in0.0 mm 0.00 in0.0 mm 0.00 in0.0 mm
01:45 PM 78.2°F25.7°C 38.5°F3.6°C 24% 3.7 mph W6.0 kmh W 11.5 mph18.5 kmh 30.27 in1025.1 mb 0.00 in0.0 mm 0.00 in0.0 mm 0.00 in0.0 mm
02:00 PM 78.7°F25.9°C 38.9°F3.8°C 24% 4.2 mph W6.8 kmh W 10.3 mph16.6 kmh 30.27 in1025.1 mb 0.00 in0.0 mm 0.00 in0.0 mm 0.00 in0.0 mm
02:15 PM 79.2°F26.2°C 38.3°F3.5°C 23% 3.5 mph WNW5.6 kmh WNW 9.5 mph15.3 kmh 30.27 in1025.1 mb 0.00 in0.0 mm 0.00 in0.0 mm 0.00 in0.0 mm
02:30 PM 79.8°F26.6°C 37.6°F3.1°C 22% 4.8 mph SSW7.7 kmh SSW 12.3 mph19.8 kmh 30.26 in1024.7 mb 0.00 in0.0 mm 0.00 in0.0 mm 0.00 in0.0 mm
02:45 PM 80.3°F26.8°C 36.9°F2.7°C 21% 6.0 mph SW9.7 kmh SW 19.9 mph32.0 kmh 30.25 in1024.4 mb 0.00 in0.0 mm 0.00 in0.0 mm 0.00 in0.0 mm
03:00 PM 80.3°F26.8°C 36.9°F2.7°C 21% 3.0 mph SSW4.8 kmh SSW 7.5 mph12.1 kmh 30.26 in1024.7 mb 0.00 in0.0 mm 0.00 in0.0 mm 0.00 in0.0 mm
03:15 PM 81.9°F27.7°C 41.6°F5.3°C 24% 3.3 mph SSE5.3 kmh SSE 11.5 mph18.5 kmh 30.25 in1024.4 mb 0.00 in0.0 mm 0.00 in0.0 mm 0.00 in0.0 mm
03:30 PM 82.1°F27.8°C 40.7°F4.8°C 23% 4.7 mph W7.6 kmh W 14.3 mph23.0 kmh 30.25 in1024.4 mb 0.00 in0.0 mm 0.00 in0.0 mm 0.00 in0.0 mm
03:45 PM 81.6°F27.6°C 37.9°F3.3°C 21% 6.3 mph SSW10.1 kmh SSW 14.3 mph23.0 kmh 30.24 in1024.0 mb 0.00 in0.0 mm 0.00 in0.0 mm 0.00 in0.0 mm
04:00 PM 82.5°F28.1°C 41.0°F5.0°C 23% 2.9 mph W4.7 kmh W 8.7 mph14.0 kmh 30.23 in1023.7 mb 0.00 in0.0 mm 0.00 in0.0 mm 0.00 in0.0 mm
04:15 PM 81.8°F27.7°C 38.1°F3.4°C 21% 2.3 mph NW3.7 kmh NW 7.5 mph12.1 kmh 30.23 in1023.7 mb 0.00 in0.0 mm 0.00 in0.0 mm 0.00 in0.0 mm
04:30 PM 82.7°F28.2°C 38.8°F3.8°C 21% 2.9 mph SSW4.7 kmh SSW 11.5 mph18.5 kmh 30.23 in1023.7 mb 0.00 in0.0 mm 0.00 in0.0 mm 0.00 in0.0 mm
04:45 PM 81.9°F27.7°C 37.0°F2.8°C 20% 3.0 mph SW4.8 kmh SW 9.5 mph15.3 kmh 30.22 in1023.4 mb 0.00 in0.0 mm 0.00 in0.0 mm 0.00 in0.0 mm
05:00 PM 81.6°F27.6°C 37.9°F3.3°C 21% 2.5 mph W4.0 kmh W 6.7 mph10.8 kmh 30.21 in1023.0 mb 0.00 in0.0 mm 0.00 in0.0 mm 0.00 in0.0 mm
05:15 PM 81.0°F27.2°C 33.6°F0.9°C 18% 2.2 mph W3.5 kmh W 12.3 mph19.8 kmh 30.21 in1023.0 mb 0.00 in0.0 mm 0.00 in0.0 mm 0.00 in0.0 mm
05:30 PM 80.1°F26.7°C 34.2°F1.2°C 19% 1.6 mph W2.6 kmh W 4.8 mph7.7 kmh 30.21 in1023.0 mb 0.00 in0.0 mm 0.00 in0.0 mm 0.00 in0.0 mm
05:45 PM 80.7°F27.1°C 37.2°F2.9°C 21% 2.3 mph SW3.7 kmh SW 8.7 mph14.0 kmh 30.20 in1022.7 mb 0.00 in0.0 mm 0.00 in0.0 mm 0.00 in0.0 mm
06:00 PM 81.6°F27.6°C 42.4°F5.8°C 25% 2.6 mph WSW4.2 kmh WSW 7.5 mph12.1 kmh 30.20 in1022.7 mb 0.00 in0.0 mm 0.00 in0.0 mm 0.00 in0.0 mm
06:15 PM 81.0°F27.2°C 37.5°F3.1°C 21% 2.2 mph W3.5 kmh W 6.7 mph10.8 kmh 30.19 in1022.4 mb 0.00 in0.0 mm 0.00 in0.0 mm 0.00 in0.0 mm
06:30 PM 81.8°F27.7°C 42.5°F5.8°C 25% 1.2 mph SW1.9 kmh SW 6.7 mph10.8 kmh 30.19 in1022.4 mb 0.00 in0.0 mm 0.00 in0.0 mm 0.00 in0.0 mm
06:45 PM 80.5°F26.9°C 38.2°F3.4°C 22% 1.8 mph SW2.9 kmh SW 5.6 mph9.0 kmh 30.19 in1022.4 mb 0.00 in0.0 mm 0.00 in0.0 mm 0.00 in0.0 mm
07:00 PM 78.2°F25.7°C 38.5°F3.6°C 24% 1.6 mph SSW2.6 kmh SSW 5.6 mph9.0 kmh 30.19 in1022.4 mb 0.00 in0.0 mm 0.00 in0.0 mm 0.00 in0.0 mm
07:15 PM 77.3°F25.2°C 40.7°F4.8°C 27% 0.6 mph S1.0 kmh S 3.9 mph6.3 kmh 30.19 in1022.4 mb 0.00 in0.0 mm 0.00 in0.0 mm 0.00 in0.0 mm
07:30 PM 75.8°F24.3°C 41.3°F5.2°C 29% 0.3 mph SE0.5 kmh SE 2.0 mph3.2 kmh 30.20 in1022.7 mb 0.00 in0.0 mm 0.00 in0.0 mm 0.00 in0.0 mm
07:45 PM 73.8°F23.2°C 43.0°F6.1°C 33% 0.5 mph SE0.8 kmh SE 2.8 mph4.5 kmh 30.19 in1022.4 mb 0.00 in0.0 mm 0.00 in0.0 mm 0.00 in0.0 mm
08:00 PM 72.4°F22.4°C 43.2°F6.2°C 35% 0.4 mph SE0.6 kmh SE 2.8 mph4.5 kmh 30.20 in1022.7 mb 0.00 in0.0 mm 0.00 in0.0 mm 0.00 in0.0 mm
08:15 PM 71.3°F21.8°C 42.3°F5.7°C 35% 0.8 mph SE1.3 kmh SE 2.8 mph4.5 kmh 30.20 in1022.7 mb 0.00 in0.0 mm 0.00 in0.0 mm 0.00 in0.0 mm
08:30 PM 70.2°F21.2°C 42.1°F5.6°C 36% 1.0 mph SSE1.6 kmh SSE 2.8 mph4.5 kmh 30.21 in1023.0 mb 0.00 in0.0 mm 0.00 in0.0 mm 0.00 in0.0 mm
08:45 PM 69.7°F20.9°C 42.3°F5.7°C 37% 1.1 mph SE1.8 kmh SE 3.9 mph6.3 kmh 30.21 in1023.0 mb 0.00 in0.0 mm 0.00 in0.0 mm 0.00 in0.0 mm
09:00 PM 69.2°F20.7°C 42.5°F5.8°C 38% 1.4 mph SE2.3 kmh SE 3.9 mph6.3 kmh 30.21 in1023.0 mb 0.00 in0.0 mm 0.00 in0.0 mm 0.00 in0.0 mm
09:15 PM 69.0°F20.6°C 43.0°F6.1°C 39% 1.9 mph SE3.1 kmh SE 3.9 mph6.3 kmh 30.21 in1023.0 mb 0.00 in0.0 mm 0.00 in0.0 mm 0.00 in0.0 mm
09:30 PM 68.6°F20.3°C 44.0°F6.7°C 41% 1.4 mph SE2.3 kmh SE 3.9 mph6.3 kmh 30.21 in1023.0 mb 0.00 in0.0 mm 0.00 in0.0 mm 0.00 in0.0 mm
09:45 PM 68.3°F20.2°C 44.3°F6.8°C 42% 1.8 mph SE2.9 kmh SE 4.8 mph7.7 kmh 30.21 in1023.0 mb 0.00 in0.0 mm 0.00 in0.0 mm 0.00 in0.0 mm
10:00 PM 67.7°F19.8°C 44.4°F6.9°C 43% 2.1 mph SE3.4 kmh SE 4.8 mph7.7 kmh 30.21 in1023.0 mb 0.00 in0.0 mm 0.00 in0.0 mm 0.00 in0.0 mm
10:15 PM 67.5°F19.7°C 44.3°F6.8°C 43% 2.2 mph SE3.5 kmh SE 4.8 mph7.7 kmh 30.21 in1023.0 mb 0.00 in0.0 mm 0.00 in0.0 mm 0.00 in0.0 mm
10:30 PM 67.5°F19.7°C 44.3°F6.8°C 43% 2.3 mph SE3.7 kmh SE 4.8 mph7.7 kmh 30.21 in1023.0 mb 0.00 in0.0 mm 0.00 in0.0 mm 0.00 in0.0 mm
10:45 PM 67.4°F19.7°C 44.1°F6.7°C 43% 2.2 mph SE3.5 kmh SE 3.9 mph6.3 kmh 30.21 in1023.0 mb 0.00 in0.0 mm 0.00 in0.0 mm 0.00 in0.0 mm
11:00 PM 67.4°F19.7°C 44.1°F6.7°C 43% 2.5 mph SE4.0 kmh SE 5.6 mph9.0 kmh 30.20 in1022.7 mb 0.00 in0.0 mm 0.00 in0.0 mm 0.00 in0.0 mm
11:15 PM 67.4°F19.7°C 44.1°F6.7°C 43% 2.4 mph SE3.9 kmh SE 4.8 mph7.7 kmh 30.21 in1023.0 mb 0.00 in0.0 mm 0.00 in0.0 mm 0.00 in0.0 mm
11:30 PM 67.2°F19.6°C 44.0°F6.7°C 43% 2.6 mph SE4.2 kmh SE 5.6 mph9.0 kmh 30.21 in1023.0 mb 0.00 in0.0 mm 0.00 in0.0 mm 0.00 in0.0 mm
11:45 PM 67.4°F19.7°C 44.1°F6.7°C 43% 2.4 mph SE3.9 kmh SE 5.6 mph9.0 kmh 30.21 in1023.0 mb 0.00 in0.0 mm 0.00 in0.0 mm 0.00 in0.0 mm